sensor_id;sensor_type;location;lat;lon;timestamp;temperature;humidity
32698;DHT22;19087;51.062;3.754;2023-04-15T00:01:08;12.70;99.90
32698;DHT22;19087;51.062;3.754;2023-04-15T00:03:34;12.60;99.90
32698;DHT22;19087;51.062;3.754;2023-04-15T00:06:00;12.70;99.90
32698;DHT22;19087;51.062;3.754;2023-04-15T00:08:26;12.70;99.90
32698;DHT22;19087;51.062;3.754;2023-04-15T00:10:53;12.80;99.90
32698;DHT22;19087;51.062;3.754;2023-04-15T00:13:19;12.70;99.90
32698;DHT22;19087;51.062;3.754;2023-04-15T00:15:45;12.70;99.90
32698;DHT22;19087;51.062;3.754;2023-04-15T00:18:10;12.70;99.90
32698;DHT22;19087;51.062;3.754;2023-04-15T00:20:36;12.70;99.90
32698;DHT22;19087;51.062;3.754;2023-04-15T00:23:03;12.80;99.90
32698;DHT22;19087;51.062;3.754;2023-04-15T00:25:30;12.90;99.90
32698;DHT22;19087;51.062;3.754;2023-04-15T00:27:55;13.00;99.90
32698;DHT22;19087;51.062;3.754;2023-04-15T00:30:21;12.90;99.90
32698;DHT22;19087;51.062;3.754;2023-04-15T00:32:48;13.00;99.90
32698;DHT22;19087;51.062;3.754;2023-04-15T00:35:13;13.00;99.90
32698;DHT22;19087;51.062;3.754;2023-04-15T00:37:40;13.00;99.90
32698;DHT22;19087;51.062;3.754;2023-04-15T00:40:06;13.00;99.90
32698;DHT22;19087;51.062;3.754;2023-04-15T00:42:34;13.00;99.90
32698;DHT22;19087;51.062;3.754;2023-04-15T00:45:00;13.00;99.90
32698;DHT22;19087;51.062;3.754;2023-04-15T00:47:26;13.00;99.90
32698;DHT22;19087;51.062;3.754;2023-04-15T00:49:54;13.00;99.90
32698;DHT22;19087;51.062;3.754;2023-04-15T00:52:19;13.00;99.90
32698;DHT22;19087;51.062;3.754;2023-04-15T00:54:45;12.90;99.90
32698;DHT22;19087;51.062;3.754;2023-04-15T00:57:11;12.60;99.90
32698;DHT22;19087;51.062;3.754;2023-04-15T00:59:36;12.70;99.90
32698;DHT22;19087;51.062;3.754;2023-04-15T01:02:02;12.80;99.90
32698;DHT22;19087;51.062;3.754;2023-04-15T01:04:28;12.70;99.90
32698;DHT22;19087;51.062;3.754;2023-04-15T01:06:53;12.50;99.90
32698;DHT22;19087;51.062;3.754;2023-04-15T01:09:19;12.30;99.90
32698;DHT22;19087;51.062;3.754;2023-04-15T01:11:45;12.20;99.90
32698;DHT22;19087;51.062;3.754;2023-04-15T01:14:10;12.30;99.90
32698;DHT22;19087;51.062;3.754;2023-04-15T01:16:39;12.40;99.90
32698;DHT22;19087;51.062;3.754;2023-04-15T01:19:06;12.60;99.90
32698;DHT22;19087;51.062;3.754;2023-04-15T01:21:35;12.60;99.90
32698;DHT22;19087;51.062;3.754;2023-04-15T01:24:01;12.50;99.90
32698;DHT22;19087;51.062;3.754;2023-04-15T01:26:29;12.40;99.90
32698;DHT22;19087;51.062;3.754;2023-04-15T01:28:55;12.20;99.90
32698;DHT22;19087;51.062;3.754;2023-04-15T01:31:21;12.10;99.90
32698;DHT22;19087;51.062;3.754;2023-04-15T01:33:47;12.10;99.90
32698;DHT22;19087;51.062;3.754;2023-04-15T01:36:13;12.20;99.90
32698;DHT22;19087;51.062;3.754;2023-04-15T01:38:39;12.30;99.90
32698;DHT22;19087;51.062;3.754;2023-04-15T01:41:05;12.20;99.90
32698;DHT22;19087;51.062;3.754;2023-04-15T01:43:33;12.10;99.90
32698;DHT22;19087;51.062;3.754;2023-04-15T01:45:59;11.90;99.90
32698;DHT22;19087;51.062;3.754;2023-04-15T01:48:25;11.80;99.90
32698;DHT22;19087;51.062;3.754;2023-04-15T01:50:53;11.80;99.90
32698;DHT22;19087;51.062;3.754;2023-04-15T01:53:18;12.00;99.90
32698;DHT22;19087;51.062;3.754;2023-04-15T01:55:44;12.00;99.90
32698;DHT22;19087;51.062;3.754;2023-04-15T01:58:10;11.90;99.90
32698;DHT22;19087;51.062;3.754;2023-04-15T02:00:36;12.00;99.90
32698;DHT22;19087;51.062;3.754;2023-04-15T02:03:02;11.90;99.90
32698;DHT22;19087;51.062;3.754;2023-04-15T02:05:27;11.70;99.90
32698;DHT22;19087;51.062;3.754;2023-04-15T02:07:53;11.60;99.90
32698;DHT22;19087;51.062;3.754;2023-04-15T02:10:19;11.70;99.90
32698;DHT22;19087;51.062;3.754;2023-04-15T02:12:45;11.60;99.90
32698;DHT22;19087;51.062;3.754;2023-04-15T02:15:11;11.60;99.90
32698;DHT22;19087;51.062;3.754;2023-04-15T02:17:36;11.60;99.90
32698;DHT22;19087;51.062;3.754;2023-04-15T02:20:02;11.80;99.90
32698;DHT22;19087;51.062;3.754;2023-04-15T02:22:30;11.80;99.90
32698;DHT22;19087;51.062;3.754;2023-04-15T02:24:56;11.90;99.90
32698;DHT22;19087;51.062;3.754;2023-04-15T02:27:21;11.70;99.90
32698;DHT22;19087;51.062;3.754;2023-04-15T02:29:47;11.70;99.90
32698;DHT22;19087;51.062;3.754;2023-04-15T02:32:15;11.50;99.90
32698;DHT22;19087;51.062;3.754;2023-04-15T02:34:42;11.60;99.90
32698;DHT22;19087;51.062;3.754;2023-04-15T02:37:08;11.60;99.90
32698;DHT22;19087;51.062;3.754;2023-04-15T02:39:34;11.60;99.90
32698;DHT22;19087;51.062;3.754;2023-04-15T02:42:00;11.80;99.90
32698;DHT22;19087;51.062;3.754;2023-04-15T02:44:26;11.80;99.90
32698;DHT22;19087;51.062;3.754;2023-04-15T02:46:52;11.80;99.90
32698;DHT22;19087;51.062;3.754;2023-04-15T02:49:20;11.90;99.90
32698;DHT22;19087;51.062;3.754;2023-04-15T02:51:47;11.90;99.90
32698;DHT22;19087;51.062;3.754;2023-04-15T02:54:20;11.90;99.90
32698;DHT22;19087;51.062;3.754;2023-04-15T02:56:50;11.90;99.90
32698;DHT22;19087;51.062;3.754;2023-04-15T02:59:20;12.00;99.90
32698;DHT22;19087;51.062;3.754;2023-04-15T03:01:46;11.90;99.90
32698;DHT22;19087;51.062;3.754;2023-04-15T03:04:11;11.90;99.90
32698;DHT22;19087;51.062;3.754;2023-04-15T03:06:38;11.70;99.90
32698;DHT22;19087;51.062;3.754;2023-04-15T03:09:03;11.70;99.90
32698;DHT22;19087;51.062;3.754;2023-04-15T03:11:29;11.50;99.90
32698;DHT22;19087;51.062;3.754;2023-04-15T03:13:56;11.50;99.90
32698;DHT22;19087;51.062;3.754;2023-04-15T03:16:21;11.60;99.90
32698;DHT22;19087;51.062;3.754;2023-04-15T03:18:47;11.70;99.90
32698;DHT22;19087;51.062;3.754;2023-04-15T03:21:12;11.70;99.90
32698;DHT22;19087;51.062;3.754;2023-04-15T03:23:38;11.70;99.90
32698;DHT22;19087;51.062;3.754;2023-04-15T03:26:04;11.70;99.90
32698;DHT22;19087;51.062;3.754;2023-04-15T03:28:30;11.70;99.90
32698;DHT22;19087;51.062;3.754;2023-04-15T03:30:57;11.70;99.90
32698;DHT22;19087;51.062;3.754;2023-04-15T03:33:22;11.60;99.90
32698;DHT22;19087;51.062;3.754;2023-04-15T03:35:49;11.50;99.90
32698;DHT22;19087;51.062;3.754;2023-04-15T03:38:14;11.50;99.90
32698;DHT22;19087;51.062;3.754;2023-04-15T03:40:41;11.40;99.90
32698;DHT22;19087;51.062;3.754;2023-04-15T03:43:07;11.50;99.90
32698;DHT22;19087;51.062;3.754;2023-04-15T03:45:33;11.60;99.90
32698;DHT22;19087;51.062;3.754;2023-04-15T03:47:59;11.50;99.90
32698;DHT22;19087;51.062;3.754;2023-04-15T03:50:28;11.60;99.90
32698;DHT22;19087;51.062;3.754;2023-04-15T03:52:55;11.60;99.90
32698;DHT22;19087;51.062;3.754;2023-04-15T03:55:21;11.50;99.90
32698;DHT22;19087;51.062;3.754;2023-04-15T03:57:46;11.60;99.90
32698;DHT22;19087;51.062;3.754;2023-04-15T04:00:12;11.50;99.90
32698;DHT22;19087;51.062;3.754;2023-04-15T04:02:38;11.40;99.90
32698;DHT22;19087;51.062;3.754;2023-04-15T04:05:03;11.40;99.90
32698;DHT22;19087;51.062;3.754;2023-04-15T04:07:29;11.40;99.90
32698;DHT22;19087;51.062;3.754;2023-04-15T04:09:56;11.30;99.90
32698;DHT22;19087;51.062;3.754;2023-04-15T04:12:21;11.30;99.90
32698;DHT22;19087;51.062;3.754;2023-04-15T04:14:47;11.30;99.90
32698;DHT22;19087;51.062;3.754;2023-04-15T04:17:12;11.30;99.90
32698;DHT22;19087;51.062;3.754;2023-04-15T04:19:38;11.10;99.90
32698;DHT22;19087;51.062;3.754;2023-04-15T04:22:04;10.90;99.90
32698;DHT22;19087;51.062;3.754;2023-04-15T04:24:29;10.90;99.90
32698;DHT22;19087;51.062;3.754;2023-04-15T04:26:55;11.00;99.90
32698;DHT22;19087;51.062;3.754;2023-04-15T04:29:21;11.10;99.90
32698;DHT22;19087;51.062;3.754;2023-04-15T04:31:47;11.10;99.90
32698;DHT22;19087;51.062;3.754;2023-04-15T04:34:13;11.10;99.90
32698;DHT22;19087;51.062;3.754;2023-04-15T04:36:40;11.20;99.90
32698;DHT22;19087;51.062;3.754;2023-04-15T04:39:06;11.20;99.90
32698;DHT22;19087;51.062;3.754;2023-04-15T04:41:31;11.10;99.90
32698;DHT22;19087;51.062;3.754;2023-04-15T04:43:57;11.10;99.90
32698;DHT22;19087;51.062;3.754;2023-04-15T04:46:22;11.20;99.90
32698;DHT22;19087;51.062;3.754;2023-04-15T04:48:48;11.10;99.90
32698;DHT22;19087;51.062;3.754;2023-04-15T04:51:14;11.20;99.90
32698;DHT22;19087;51.062;3.754;2023-04-15T04:53:40;11.20;99.90
32698;DHT22;19087;51.062;3.754;2023-04-15T04:56:08;11.20;99.90
32698;DHT22;19087;51.062;3.754;2023-04-15T04:58:33;11.30;99.90
32698;DHT22;19087;51.062;3.754;2023-04-15T05:00:59;11.30;99.90
32698;DHT22;19087;51.062;3.754;2023-04-15T05:03:25;11.20;99.90
32698;DHT22;19087;51.062;3.754;2023-04-15T05:05:51;11.10;99.90
32698;DHT22;19087;51.062;3.754;2023-04-15T05:08:17;11.30;99.90
32698;DHT22;19087;51.062;3.754;2023-04-15T05:10:43;11.40;99.90
32698;DHT22;19087;51.062;3.754;2023-04-15T05:13:09;11.40;99.90
32698;DHT22;19087;51.062;3.754;2023-04-15T05:15:35;11.40;99.90
32698;DHT22;19087;51.062;3.754;2023-04-15T05:18:01;11.50;99.90
32698;DHT22;19087;51.062;3.754;2023-04-15T05:20:27;11.50;99.90
32698;DHT22;19087;51.062;3.754;2023-04-15T05:22:53;11.50;99.90
32698;DHT22;19087;51.062;3.754;2023-04-15T05:25:18;11.50;99.90
32698;DHT22;19087;51.062;3.754;2023-04-15T05:27:44;11.50;99.90
32698;DHT22;19087;51.062;3.754;2023-04-15T05:30:10;11.50;99.90
32698;DHT22;19087;51.062;3.754;2023-04-15T05:32:36;11.50;99.90
32698;DHT22;19087;51.062;3.754;2023-04-15T05:35:01;11.60;99.90
32698;DHT22;19087;51.062;3.754;2023-04-15T05:37:28;11.60;99.90
32698;DHT22;19087;51.062;3.754;2023-04-15T05:40:03;11.40;99.90
32698;DHT22;19087;51.062;3.754;2023-04-15T05:42:29;11.50;99.90
32698;DHT22;19087;51.062;3.754;2023-04-15T05:44:54;11.40;99.90
32698;DHT22;19087;51.062;3.754;2023-04-15T05:47:20;11.40;99.90
32698;DHT22;19087;51.062;3.754;2023-04-15T05:49:46;11.40;99.90
32698;DHT22;19087;51.062;3.754;2023-04-15T05:52:11;11.30;99.90
32698;DHT22;19087;51.062;3.754;2023-04-15T05:54:37;11.30;99.90
32698;DHT22;19087;51.062;3.754;2023-04-15T05:57:02;11.30;99.90
32698;DHT22;19087;51.062;3.754;2023-04-15T05:59:28;11.50;99.90
32698;DHT22;19087;51.062;3.754;2023-04-15T06:01:54;11.70;99.90
32698;DHT22;19087;51.062;3.754;2023-04-15T06:04:20;11.80;99.90
32698;DHT22;19087;51.062;3.754;2023-04-15T06:06:47;11.80;99.90
32698;DHT22;19087;51.062;3.754;2023-04-15T06:09:13;11.80;99.90
32698;DHT22;19087;51.062;3.754;2023-04-15T06:11:38;11.80;99.90
32698;DHT22;19087;51.062;3.754;2023-04-15T06:14:05;11.80;99.90
32698;DHT22;19087;51.062;3.754;2023-04-15T06:16:31;11.80;99.90
32698;DHT22;19087;51.062;3.754;2023-04-15T06:18:57;11.80;99.90
32698;DHT22;19087;51.062;3.754;2023-04-15T06:21:23;11.90;99.90
32698;DHT22;19087;51.062;3.754;2023-04-15T06:23:49;12.00;99.90
32698;DHT22;19087;51.062;3.754;2023-04-15T06:26:15;12.20;99.90
32698;DHT22;19087;51.062;3.754;2023-04-15T06:28:40;12.30;99.90
32698;DHT22;19087;51.062;3.754;2023-04-15T06:31:06;12.40;99.90
32698;DHT22;19087;51.062;3.754;2023-04-15T06:33:32;12.50;99.90
32698;DHT22;19087;51.062;3.754;2023-04-15T06:35:57;12.70;99.90
32698;DHT22;19087;51.062;3.754;2023-04-15T06:38:23;12.90;99.90
32698;DHT22;19087;51.062;3.754;2023-04-15T06:40:49;13.00;99.90
32698;DHT22;19087;51.062;3.754;2023-04-15T06:43:18;13.10;99.90
32698;DHT22;19087;51.062;3.754;2023-04-15T06:45:44;13.10;99.90
32698;DHT22;19087;51.062;3.754;2023-04-15T06:48:10;13.20;99.90
32698;DHT22;19087;51.062;3.754;2023-04-15T06:50:36;13.30;99.90
32698;DHT22;19087;51.062;3.754;2023-04-15T06:53:03;13.40;99.90
32698;DHT22;19087;51.062;3.754;2023-04-15T06:55:28;13.40;99.90
32698;DHT22;19087;51.062;3.754;2023-04-15T06:57:56;13.60;99.90
32698;DHT22;19087;51.062;3.754;2023-04-15T07:00:22;13.80;99.90
32698;DHT22;19087;51.062;3.754;2023-04-15T07:02:48;14.00;99.90
32698;DHT22;19087;51.062;3.754;2023-04-15T07:05:13;14.10;99.90
32698;DHT22;19087;51.062;3.754;2023-04-15T07:07:39;14.30;99.90
32698;DHT22;19087;51.062;3.754;2023-04-15T07:10:05;14.50;99.90
32698;DHT22;19087;51.062;3.754;2023-04-15T07:12:31;14.70;99.90
32698;DHT22;19087;51.062;3.754;2023-04-15T07:14:56;14.80;99.90
32698;DHT22;19087;51.062;3.754;2023-04-15T07:17:22;15.10;99.90
32698;DHT22;19087;51.062;3.754;2023-04-15T07:19:48;15.20;99.90
32698;DHT22;19087;51.062;3.754;2023-04-15T07:22:14;15.10;99.90
32698;DHT22;19087;51.062;3.754;2023-04-15T07:24:40;15.10;99.90
32698;DHT22;19087;51.062;3.754;2023-04-15T07:27:08;15.10;99.90
32698;DHT22;19087;51.062;3.754;2023-04-15T07:29:34;15.00;99.90
32698;DHT22;19087;51.062;3.754;2023-04-15T07:32:00;14.70;99.90
32698;DHT22;19087;51.062;3.754;2023-04-15T07:34:27;14.70;99.90
32698;DHT22;19087;51.062;3.754;2023-04-15T07:36:56;14.70;99.90
32698;DHT22;19087;51.062;3.754;2023-04-15T07:39:23;14.70;99.90
32698;DHT22;19087;51.062;3.754;2023-04-15T07:41:49;14.60;99.90
32698;DHT22;19087;51.062;3.754;2023-04-15T07:44:14;14.30;99.90
32698;DHT22;19087;51.062;3.754;2023-04-15T07:46:40;14.30;99.90
32698;DHT22;19087;51.062;3.754;2023-04-15T07:49:06;14.30;99.90
32698;DHT22;19087;51.062;3.754;2023-04-15T07:51:31;14.40;99.90
32698;DHT22;19087;51.062;3.754;2023-04-15T07:53:58;14.50;99.90
32698;DHT22;19087;51.062;3.754;2023-04-15T07:56:26;14.60;99.90
32698;DHT22;19087;51.062;3.754;2023-04-15T07:58:52;14.60;99.90
32698;DHT22;19087;51.062;3.754;2023-04-15T08:01:20;14.60;99.90
32698;DHT22;19087;51.062;3.754;2023-04-15T08:03:47;14.80;99.90
32698;DHT22;19087;51.062;3.754;2023-04-15T08:06:13;15.10;99.90
32698;DHT22;19087;51.062;3.754;2023-04-15T08:08:38;15.40;99.90
32698;DHT22;19087;51.062;3.754;2023-04-15T08:11:04;15.50;99.90
32698;DHT22;19087;51.062;3.754;2023-04-15T08:13:30;15.90;99.90
32698;DHT22;19087;51.062;3.754;2023-04-15T08:18:58;16.20;99.90
32698;DHT22;19087;51.062;3.754;2023-04-15T08:21:23;16.60;99.90
32698;DHT22;19087;51.062;3.754;2023-04-15T08:23:51;16.70;99.90
32698;DHT22;19087;51.062;3.754;2023-04-15T08:26:17;16.90;99.90
32698;DHT22;19087;51.062;3.754;2023-04-15T08:28:44;17.10;99.90
32698;DHT22;19087;51.062;3.754;2023-04-15T08:31:10;17.50;99.90
32698;DHT22;19087;51.062;3.754;2023-04-15T08:33:37;17.90;99.90
32698;DHT22;19087;51.062;3.754;2023-04-15T08:36:03;18.00;99.90
32698;DHT22;19087;51.062;3.754;2023-04-15T08:38:29;18.10;99.90
32698;DHT22;19087;51.062;3.754;2023-04-15T08:40:55;18.30;99.90
32698;DHT22;19087;51.062;3.754;2023-04-15T08:43:22;18.00;99.90
32698;DHT22;19087;51.062;3.754;2023-04-15T08:45:53;17.90;99.90
32698;DHT22;19087;51.062;3.754;2023-04-15T08:48:19;18.00;99.90
32698;DHT22;19087;51.062;3.754;2023-04-15T08:50:45;18.00;99.90
32698;DHT22;19087;51.062;3.754;2023-04-15T08:53:11;18.00;99.20
32698;DHT22;19087;51.062;3.754;2023-04-15T08:55:39;17.90;99.80
32698;DHT22;19087;51.062;3.754;2023-04-15T08:58:06;17.80;99.90
32698;DHT22;19087;51.062;3.754;2023-04-15T09:00:32;17.60;99.40
32698;DHT22;19087;51.062;3.754;2023-04-15T09:02:58;17.60;99.40
32698;DHT22;19087;51.062;3.754;2023-04-15T09:05:24;17.40;99.20
32698;DHT22;19087;51.062;3.754;2023-04-15T09:07:50;17.40;99.40
32698;DHT22;19087;51.062;3.754;2023-04-15T09:10:15;17.30;99.30
32698;DHT22;19087;51.062;3.754;2023-04-15T09:12:41;17.30;99.20
32698;DHT22;19087;51.062;3.754;2023-04-15T09:15:07;17.30;99.40
32698;DHT22;19087;51.062;3.754;2023-04-15T09:17:36;17.10;99.70
32698;DHT22;19087;51.062;3.754;2023-04-15T09:20:09;17.00;99.90
32698;DHT22;19087;51.062;3.754;2023-04-15T09:22:35;17.00;99.90
32698;DHT22;19087;51.062;3.754;2023-04-15T09:25:02;17.00;99.90
32698;DHT22;19087;51.062;3.754;2023-04-15T09:27:28;17.30;99.90
32698;DHT22;19087;51.062;3.754;2023-04-15T09:29:54;17.50;99.90
32698;DHT22;19087;51.062;3.754;2023-04-15T09:32:20;17.30;99.90
32698;DHT22;19087;51.062;3.754;2023-04-15T09:34:47;17.30;99.90
32698;DHT22;19087;51.062;3.754;2023-04-15T09:37:13;17.30;99.90
32698;DHT22;19087;51.062;3.754;2023-04-15T09:39:47;17.50;99.90
32698;DHT22;19087;51.062;3.754;2023-04-15T09:42:14;17.70;99.90
32698;DHT22;19087;51.062;3.754;2023-04-15T09:44:41;17.60;99.30
32698;DHT22;19087;51.062;3.754;2023-04-15T09:47:06;17.30;99.70
32698;DHT22;19087;51.062;3.754;2023-04-15T09:49:32;17.20;99.90
32698;DHT22;19087;51.062;3.754;2023-04-15T09:52:01;17.10;99.90
32698;DHT22;19087;51.062;3.754;2023-04-15T09:54:36;17.20;99.90
32698;DHT22;19087;51.062;3.754;2023-04-15T09:57:08;17.20;99.90
32698;DHT22;19087;51.062;3.754;2023-04-15T09:59:35;17.10;99.90
32698;DHT22;19087;51.062;3.754;2023-04-15T10:02:05;17.00;99.90
32698;DHT22;19087;51.062;3.754;2023-04-15T10:04:34;16.90;99.90
32698;DHT22;19087;51.062;3.754;2023-04-15T10:07:02;16.90;99.90
32698;DHT22;19087;51.062;3.754;2023-04-15T10:09:28;16.80;99.90
32698;DHT22;19087;51.062;3.754;2023-04-15T10:11:54;16.90;99.90
32698;DHT22;19087;51.062;3.754;2023-04-15T10:14:20;16.90;99.90
32698;DHT22;19087;51.062;3.754;2023-04-15T10:16:47;17.00;99.90
32698;DHT22;19087;51.062;3.754;2023-04-15T10:19:13;17.00;99.90
32698;DHT22;19087;51.062;3.754;2023-04-15T10:21:41;17.10;99.90
32698;DHT22;19087;51.062;3.754;2023-04-15T10:24:12;17.00;99.90
32698;DHT22;19087;51.062;3.754;2023-04-15T10:26:39;17.10;99.90
32698;DHT22;19087;51.062;3.754;2023-04-15T10:29:05;17.00;99.90
32698;DHT22;19087;51.062;3.754;2023-04-15T10:31:31;16.90;99.90
32698;DHT22;19087;51.062;3.754;2023-04-15T10:33:57;16.60;99.90
32698;DHT22;19087;51.062;3.754;2023-04-15T10:36:23;16.60;99.60
32698;DHT22;19087;51.062;3.754;2023-04-15T10:38:49;16.50;99.80
32698;DHT22;19087;51.062;3.754;2023-04-15T10:41:18;16.40;99.60
32698;DHT22;19087;51.062;3.754;2023-04-15T10:43:50;16.40;98.60
32698;DHT22;19087;51.062;3.754;2023-04-15T10:46:21;16.50;98.20
32698;DHT22;19087;51.062;3.754;2023-04-15T10:48:51;16.30;98.70
32698;DHT22;19087;51.062;3.754;2023-04-15T10:51:29;16.30;98.50
32698;DHT22;19087;51.062;3.754;2023-04-15T10:53:55;16.40;98.10
32698;DHT22;19087;51.062;3.754;2023-04-15T10:56:22;16.40;97.90
32698;DHT22;19087;51.062;3.754;2023-04-15T10:58:49;16.30;97.90
32698;DHT22;19087;51.062;3.754;2023-04-15T11:01:15;16.40;97.60
32698;DHT22;19087;51.062;3.754;2023-04-15T11:03:41;16.60;97.50
32698;DHT22;19087;51.062;3.754;2023-04-15T11:06:07;16.60;97.40
32698;DHT22;19087;51.062;3.754;2023-04-15T11:08:55;16.70;96.60
32698;DHT22;19087;51.062;3.754;2023-04-15T11:11:21;16.60;95.30
32698;DHT22;19087;51.062;3.754;2023-04-15T11:13:50;16.50;94.60
32698;DHT22;19087;51.062;3.754;2023-04-15T11:16:17;16.50;95.50
32698;DHT22;19087;51.062;3.754;2023-04-15T11:18:52;16.40;96.10
32698;DHT22;19087;51.062;3.754;2023-04-15T11:21:17;16.40;94.80
32698;DHT22;19087;51.062;3.754;2023-04-15T11:23:44;16.40;93.50
32698;DHT22;19087;51.062;3.754;2023-04-15T11:26:13;16.40;94.90
32698;DHT22;19087;51.062;3.754;2023-04-15T11:28:39;16.30;94.60
32698;DHT22;19087;51.062;3.754;2023-04-15T11:31:08;16.40;95.10
32698;DHT22;19087;51.062;3.754;2023-04-15T11:33:35;16.50;95.60
32698;DHT22;19087;51.062;3.754;2023-04-15T11:36:01;16.70;94.00
32698;DHT22;19087;51.062;3.754;2023-04-15T11:38:28;16.80;92.00
32698;DHT22;19087;51.062;3.754;2023-04-15T11:40:54;16.70;91.90
32698;DHT22;19087;51.062;3.754;2023-04-15T11:43:20;16.60;91.90
32698;DHT22;19087;51.062;3.754;2023-04-15T11:45:53;16.50;91.80
32698;DHT22;19087;51.062;3.754;2023-04-15T11:48:20;16.50;91.50
32698;DHT22;19087;51.062;3.754;2023-04-15T11:50:51;16.50;92.00
32698;DHT22;19087;51.062;3.754;2023-04-15T11:53:17;16.70;91.10
32698;DHT22;19087;51.062;3.754;2023-04-15T11:55:46;16.80;91.40
32698;DHT22;19087;51.062;3.754;2023-04-15T11:58:17;16.80;91.90
32698;DHT22;19087;51.062;3.754;2023-04-15T12:09:10;16.70;91.10
32698;DHT22;19087;51.062;3.754;2023-04-15T12:11:11;16.60;89.70
32698;DHT22;19087;51.062;3.754;2023-04-15T12:13:36;16.80;90.50
32698;DHT22;19087;51.062;3.754;2023-04-15T12:16:02;16.90;90.20
32698;DHT22;19087;51.062;3.754;2023-04-15T12:18:29;17.00;90.00
32698;DHT22;19087;51.062;3.754;2023-04-15T12:20:55;16.90;89.30
32698;DHT22;19087;51.062;3.754;2023-04-15T12:23:20;17.00;91.30
32698;DHT22;19087;51.062;3.754;2023-04-15T12:25:51;16.90;91.50
32698;DHT22;19087;51.062;3.754;2023-04-15T12:28:17;16.80;90.30
32698;DHT22;19087;51.062;3.754;2023-04-15T12:30:49;16.80;91.00
32698;DHT22;19087;51.062;3.754;2023-04-15T12:33:18;16.80;91.50
32698;DHT22;19087;51.062;3.754;2023-04-15T12:35:44;16.70;90.90
32698;DHT22;19087;51.062;3.754;2023-04-15T12:38:09;16.70;90.80
32698;DHT22;19087;51.062;3.754;2023-04-15T12:40:35;16.70;91.00
32698;DHT22;19087;51.062;3.754;2023-04-15T12:43:01;16.70;90.20
32698;DHT22;19087;51.062;3.754;2023-04-15T12:45:28;16.80;90.60
32698;DHT22;19087;51.062;3.754;2023-04-15T12:47:54;16.80;90.70
32698;DHT22;19087;51.062;3.754;2023-04-15T12:50:19;16.90;88.70
32698;DHT22;19087;51.062;3.754;2023-04-15T12:52:45;16.90;89.80
32698;DHT22;19087;51.062;3.754;2023-04-15T12:55:11;16.90;89.50
32698;DHT22;19087;51.062;3.754;2023-04-15T12:57:37;17.10;90.50
32698;DHT22;19087;51.062;3.754;2023-04-15T13:00:03;17.10;90.30
32698;DHT22;19087;51.062;3.754;2023-04-15T13:02:32;17.00;91.20
32698;DHT22;19087;51.062;3.754;2023-04-15T13:04:58;16.90;91.00
32698;DHT22;19087;51.062;3.754;2023-04-15T13:07:23;16.90;91.20
32698;DHT22;19087;51.062;3.754;2023-04-15T13:09:49;16.80;91.50
32698;DHT22;19087;51.062;3.754;2023-04-15T13:12:15;16.90;90.50
32698;DHT22;19087;51.062;3.754;2023-04-15T13:14:40;16.90;90.60
32698;DHT22;19087;51.062;3.754;2023-04-15T13:17:07;17.00;90.20
32698;DHT22;19087;51.062;3.754;2023-04-15T13:19:34;17.00;88.40
32698;DHT22;19087;51.062;3.754;2023-04-15T13:22:01;17.00;88.70
32698;DHT22;19087;51.062;3.754;2023-04-15T13:24:27;17.10;89.30
32698;DHT22;19087;51.062;3.754;2023-04-15T13:26:53;17.10;89.20
32698;DHT22;19087;51.062;3.754;2023-04-15T13:29:19;17.10;89.30
32698;DHT22;19087;51.062;3.754;2023-04-15T13:31:45;17.20;88.60
32698;DHT22;19087;51.062;3.754;2023-04-15T13:34:11;17.20;88.00
32698;DHT22;19087;51.062;3.754;2023-04-15T13:36:37;17.00;87.70
32698;DHT22;19087;51.062;3.754;2023-04-15T13:39:02;17.10;86.50
32698;DHT22;19087;51.062;3.754;2023-04-15T13:41:33;17.30;87.40
32698;DHT22;19087;51.062;3.754;2023-04-15T13:44:05;17.30;89.90
32698;DHT22;19087;51.062;3.754;2023-04-15T13:46:32;17.20;91.00
32698;DHT22;19087;51.062;3.754;2023-04-15T13:48:58;17.30;92.50
32698;DHT22;19087;51.062;3.754;2023-04-15T13:51:25;17.30;94.30
32698;DHT22;19087;51.062;3.754;2023-04-15T13:53:52;17.10;95.00
32698;DHT22;19087;51.062;3.754;2023-04-15T13:56:18;17.10;95.90
32698;DHT22;19087;51.062;3.754;2023-04-15T13:58:44;17.10;96.40
32698;DHT22;19087;51.062;3.754;2023-04-15T14:01:10;17.20;96.40
32698;DHT22;19087;51.062;3.754;2023-04-15T14:03:35;17.20;96.50
32698;DHT22;19087;51.062;3.754;2023-04-15T14:06:01;17.30;96.60
32698;DHT22;19087;51.062;3.754;2023-04-15T14:08:28;17.10;96.70
32698;DHT22;19087;51.062;3.754;2023-04-15T14:10:54;16.80;97.40
32698;DHT22;19087;51.062;3.754;2023-04-15T14:13:20;16.90;97.80
32698;DHT22;19087;51.062;3.754;2023-04-15T14:15:46;16.90;97.30
32698;DHT22;19087;51.062;3.754;2023-04-15T14:18:11;16.70;97.60
32698;DHT22;19087;51.062;3.754;2023-04-15T14:20:37;16.60;97.50
32698;DHT22;19087;51.062;3.754;2023-04-15T14:23:02;16.40;97.80
32698;DHT22;19087;51.062;3.754;2023-04-15T14:25:28;16.20;97.90
32698;DHT22;19087;51.062;3.754;2023-04-15T14:27:54;16.20;97.70
32698;DHT22;19087;51.062;3.754;2023-04-15T14:30:20;16.20;97.80
32698;DHT22;19087;51.062;3.754;2023-04-15T14:32:48;16.30;97.80
32698;DHT22;19087;51.062;3.754;2023-04-15T14:35:14;16.40;97.90
32698;DHT22;19087;51.062;3.754;2023-04-15T14:37:43;16.60;97.40
32698;DHT22;19087;51.062;3.754;2023-04-15T14:40:09;16.60;96.30
32698;DHT22;19087;51.062;3.754;2023-04-15T14:42:39;16.40;95.60
32698;DHT22;19087;51.062;3.754;2023-04-15T14:45:06;16.30;96.00
32698;DHT22;19087;51.062;3.754;2023-04-15T14:47:32;16.30;96.10
32698;DHT22;19087;51.062;3.754;2023-04-15T14:49:58;16.40;96.20
32698;DHT22;19087;51.062;3.754;2023-04-15T14:52:24;16.40;96.10
32698;DHT22;19087;51.062;3.754;2023-04-15T14:54:49;16.30;96.10
32698;DHT22;19087;51.062;3.754;2023-04-15T14:57:15;16.20;95.30
32698;DHT22;19087;51.062;3.754;2023-04-15T14:59:41;16.20;95.70
32698;DHT22;19087;51.062;3.754;2023-04-15T15:02:06;16.00;96.00
32698;DHT22;19087;51.062;3.754;2023-04-15T15:04:33;15.80;96.00
32698;DHT22;19087;51.062;3.754;2023-04-15T15:06:58;15.80;95.80
32698;DHT22;19087;51.062;3.754;2023-04-15T15:09:25;15.80;94.10
32698;DHT22;19087;51.062;3.754;2023-04-15T15:11:52;15.80;94.10
32698;DHT22;19087;51.062;3.754;2023-04-15T15:14:18;15.70;93.20
32698;DHT22;19087;51.062;3.754;2023-04-15T15:16:47;15.70;92.90
32698;DHT22;19087;51.062;3.754;2023-04-15T15:19:12;15.60;93.00
32698;DHT22;19087;51.062;3.754;2023-04-15T15:21:38;15.50;93.10
32698;DHT22;19087;51.062;3.754;2023-04-15T15:24:04;15.50;93.20
32698;DHT22;19087;51.062;3.754;2023-04-15T15:26:30;15.60;94.00
32698;DHT22;19087;51.062;3.754;2023-04-15T15:28:56;15.60;94.70
32698;DHT22;19087;51.062;3.754;2023-04-15T15:31:22;15.60;95.10
32698;DHT22;19087;51.062;3.754;2023-04-15T15:33:48;15.50;95.70
32698;DHT22;19087;51.062;3.754;2023-04-15T15:36:14;15.50;95.90